Northway, Alaska
Current Conditions -  °F | °C
As of 6:53 PM on Saturday 20 Dec 2014 (Local Time) from PAOR Reporting Station
Light Snow Light Snow  
Wind Chill: -2°   Ceiling: 3200
Heat Index: -2°   Visibility: 9mi
Dew Point: -7°   Wind: 0mph
Humidity: 79%   Direction: NA
Pressure: 29.13"   Gusts: NA
Location:  62.95°N, 141.93°W
Report Text: PAOR 210353Z 00000KT 9SM -SN OVC032 M19/M22 A2913 RMK AO2 SLP934 PCPN VRY LGT T11891217
Loading
Personal Weather Stations






























Interactive Weather Map New forecast layout! Learn more

10-Day Weather Forecast

Advertisements
Track Severe Weather on mobile